createdAt,value
2022-07-27T00:02:32.610Z,150054.94
2022-07-27T00:07:37.461Z,150080.78
2022-07-27T00:12:41.829Z,150096.31
2022-07-27T00:17:45.189Z,150096.31
2022-07-27T00:22:49.956Z,150075.63
2022-07-27T00:27:53.397Z,150022.56
2022-07-27T00:32:57.136Z,150052.34
2022-07-27T00:38:01.803Z,150083.41
2022-07-27T00:43:05.215Z,150093.75
2022-07-27T00:48:08.638Z,150095.03
2022-07-27T00:53:14.272Z,150073.03
2022-07-27T00:58:18.360Z,150074.34
2022-07-27T01:03:23.255Z,150036.75
2022-07-27T01:08:34.883Z,150027.75
2022-07-27T01:13:38.511Z,150029.03
2022-07-27T01:18:43.376Z,150035.47
2022-07-27T01:23:48.102Z,150039.38
2022-07-27T01:28:51.412Z,150032.91
2022-07-27T01:33:54.751Z,150025.13
2022-07-27T01:38:59.457Z,149943.72
2022-07-27T01:44:02.751Z,149897.16
2022-07-27T01:49:06.562Z,149845.50
2022-07-27T01:54:11.325Z,149850.63
2022-07-27T01:59:14.836Z,149876.53
2022-07-27T02:04:20.608Z,149880.38
2022-07-27T02:09:25.975Z,149917.84
2022-07-27T02:14:29.287Z,149866.19
2022-07-27T02:19:32.693Z,149881.66
2022-07-27T02:24:37.957Z,149899.78
2022-07-27T02:29:41.304Z,149895.88
2022-07-27T02:34:45.109Z,149881.66
2022-07-27T02:39:49.856Z,149904.91
2022-07-27T02:44:53.364Z,149873.91
2022-07-27T02:49:56.959Z,149873.91
2022-07-27T02:55:01.835Z,149886.84
2022-07-27T03:00:07.012Z,149886.84
2022-07-27T03:05:12.710Z,149875.19
2022-07-27T03:16:05.581Z,149846.78
2022-07-27T03:21:09.068Z,149849.34
2022-07-27T03:26:13.998Z,149853.22
2022-07-27T03:31:17.437Z,149866.19
2022-07-27T03:36:21.617Z,149870.03
2022-07-27T03:41:26.260Z,149863.56
2022-07-27T03:46:29.720Z,149882.94
2022-07-27T03:51:33.114Z,149903.63
2022-07-27T03:56:37.852Z,149885.53
2022-07-27T04:01:41.222Z,149882.94
2022-07-27T04:06:44.611Z,149917.84
2022-07-27T04:11:50.945Z,149926.88
2022-07-27T04:16:55.113Z,149946.28
2022-07-27T04:21:58.571Z,150009.63
2022-07-27T04:27:03.540Z,150057.50
2022-07-27T04:32:07.834Z,150075.63
2022-07-27T04:37:11.311Z,150114.44
2022-07-27T04:42:16.026Z,150123.44
2022-07-27T04:47:20.192Z,150135.09
2022-07-27T04:52:27.025Z,150139.00
2022-07-27T04:57:33.717Z,150211.41
2022-07-27T05:02:40.954Z,150226.94
2022-07-27T05:07:44.298Z,150280.00
2022-07-27T05:12:49.571Z,150378.38
2022-07-27T05:17:53.686Z,150484.53
2022-07-27T05:22:57.613Z,150557.00
2022-07-27T05:28:03.046Z,150686.56
2022-07-27T05:33:06.582Z,150621.81
2022-07-27T05:38:10.335Z,150610.16
2022-07-27T05:43:15.137Z,150656.78
2022-07-27T05:48:18.597Z,150770.78
2022-07-27T05:53:22.015Z,150855.09
2022-07-27T05:58:26.735Z,150892.66
2022-07-27T06:03:30.276Z,150938.00
2022-07-27T06:08:33.962Z,151167.56
2022-07-27T06:13:42.486Z,151528.41
2022-07-27T06:18:46.145Z,152110.72
2022-07-27T06:23:49.472Z,152131.50
2022-07-27T06:28:58.797Z,151877.94
2022-07-27T06:34:02.296Z,151659.63
2022-07-27T06:39:06.432Z,151542.72
2022-07-27T06:44:11.088Z,151411.56
2022-07-27T06:49:14.970Z,151301.25
2022-07-27T06:54:18.530Z,151246.72
2022-07-27T06:59:23.252Z,151286.97
2022-07-27T07:04:26.687Z,151244.09
2022-07-27T07:09:30.568Z,151314.22
2022-07-27T07:14:35.304Z,151310.31
2022-07-27T07:19:38.636Z,151259.69
2022-07-27T07:24:42.254Z,151126.09
2022-07-27T07:29:47.157Z,151177.94
2022-07-27T07:34:50.847Z,151220.75
2022-07-27T07:39:54.173Z,151197.41
2022-07-27T07:44:58.942Z,151255.75
2022-07-27T07:50:02.396Z,151219.47
2022-07-27T07:55:06.563Z,151319.41
2022-07-27T08:00:12.669Z,151399.88
2022-07-27T08:05:16.578Z,151477.75
2022-07-27T08:10:22.687Z,151460.88
2022-07-27T08:15:34.968Z,151547.91
2022-07-27T08:20:39.539Z,151482.94
2022-07-27T08:25:42.914Z,151476.47
2022-07-27T08:30:48.280Z,151337.59
2022-07-27T08:35:53.016Z,151485.56
2022-07-27T08:40:56.710Z,151494.66
2022-07-27T08:46:01.987Z,151518.06
2022-07-27T08:51:05.592Z,151324.63
2022-07-27T08:56:10.148Z,151358.34
2022-07-27T09:01:16.100Z,151433.63
2022-07-27T09:06:44.096Z,151414.16
2022-07-27T09:12:06.389Z,151438.81
2022-07-27T09:17:49.455Z,151476.47
2022-07-27T09:22:55.541Z,151514.16
2022-07-27T09:28:00.935Z,151572.59
2022-07-27T09:33:07.940Z,151605.06
2022-07-27T09:38:19.189Z,151586.88
2022-07-27T09:48:47.726Z,151663.50
2022-07-27T09:53:51.279Z,152114.59
2022-07-27T09:58:56.861Z,152542.72
2022-07-27T10:04:03.673Z,152272.03
2022-07-27T10:09:07.180Z,152183.56
2022-07-27T10:14:10.819Z,152304.56
2022-07-27T10:19:21.156Z,152503.72
2022-07-27T10:24:28.989Z,152804.59
2022-07-27T10:29:33.209Z,152768.06
2022-07-27T10:34:40.744Z,152856.69
2022-07-27T10:39:46.171Z,152908.81
2022-07-27T10:45:05.057Z,153032.66
2022-07-27T10:50:29.919Z,152983.16
2022-07-27T10:55:46.877Z,152593.53
2022-07-27T11:01:00.066Z,152421.63
2022-07-27T11:06:31.344Z,152613.06
2022-07-27T11:11:34.517Z,152581.81
2022-07-27T11:16:54.691Z,152238.19
2022-07-27T11:22:04.553Z,152583.09
2022-07-27T11:27:16.350Z,152656.09
2022-07-27T11:32:22.200Z,152902.28
2022-07-27T11:37:26.855Z,152821.53
2022-07-27T11:42:39.205Z,152709.47
2022-07-27T11:47:42.679Z,152864.53
2022-07-27T11:53:01.261Z,153048.31
2022-07-27T11:58:05.425Z,152908.81
2022-07-27T12:03:08.998Z,152949.25
2022-07-27T12:08:14.444Z,153092.66
2022-07-27T12:13:19.730Z,153127.88
2022-07-27T12:18:23.170Z,153183.94
2022-07-27T12:23:31.229Z,153224.38
2022-07-27T12:28:34.592Z,153258.28
2022-07-27T12:33:39.004Z,153448.78
2022-07-27T12:38:45.400Z,153491.84
2022-07-27T12:44:05.316Z,153741.19
2022-07-27T12:49:17.200Z,153941.06
2022-07-27T12:54:22.378Z,153793.47
2022-07-27T12:59:25.714Z,153648.50
2022-07-27T13:04:29.080Z,153474.91
2022-07-27T13:10:01.720Z,154133.19
2022-07-27T13:14:59.125Z,154779.44
2022-07-27T13:20:02.607Z,155012.50
2022-07-27T13:25:16.085Z,154095.28
2022-07-27T13:30:21.419Z,153732.06
2022-07-27T13:35:24.820Z,153863.97
2022-07-27T13:40:29.610Z,153747.78
2022-07-27T13:45:42.797Z,154351.59
2022-07-27T13:50:47.005Z,155005.94
2022-07-27T13:55:51.745Z,154041.72
2022-07-27T14:00:55.824Z,153715.09
2022-07-27T14:05:59.242Z,153574.09
2022-07-27T14:11:04.362Z,153290.94
2022-07-27T14:16:08.453Z,153215.25
2022-07-27T14:21:12.077Z,153148.75
2022-07-27T14:26:16.930Z,153223.06
2022-07-27T14:31:22.164Z,153211.34
2022-07-27T14:36:25.615Z,153211.34
2022-07-27T14:41:31.441Z,153315.69
2022-07-27T14:46:34.908Z,153623.69
2022-07-27T14:51:38.312Z,154057.41
2022-07-27T14:56:43.083Z,154104.44
2022-07-27T15:01:46.648Z,154211.66
2022-07-27T15:06:50.202Z,154382.91
2022-07-27T15:11:55.054Z,154716.56
2022-07-27T15:16:58.491Z,154322.81
2022-07-27T15:22:01.975Z,154243.03
2022-07-27T15:27:07.046Z,154243.03
2022-07-27T15:32:10.596Z,154118.78
2022-07-27T15:37:14.808Z,153638.03
2022-07-27T15:42:19.555Z,153455.34
2022-07-27T15:47:22.901Z,153946.34
2022-07-27T15:52:26.223Z,153386.16
2022-07-27T15:57:30.960Z,152779.78
2022-07-27T16:02:34.359Z,152533.66
2022-07-27T16:07:41.399Z,152291.53
2022-07-27T16:12:46.473Z,152262.88
2022-07-27T16:17:49.939Z,152204.31
2022-07-27T16:22:53.253Z,152144.50
2022-07-27T16:27:57.948Z,152007.91
2022-07-27T16:33:03.438Z,151984.53
2022-07-27T16:38:06.934Z,151955.97
2022-07-27T16:43:11.663Z,151825.94
2022-07-27T16:48:14.999Z,151758.38
2022-07-27T16:53:18.359Z,151753.16
2022-07-27T16:58:23.021Z,151738.91
2022-07-27T17:03:27.088Z,151683.00
2022-07-27T17:08:30.568Z,151656.97
2022-07-27T17:13:37.100Z,151653.09
2022-07-27T17:18:40.771Z,151564.81
2022-07-27T17:23:45.110Z,151558.28
2022-07-27T17:28:49.943Z,151599.84
2022-07-27T17:33:54.150Z,151584.28
2022-07-27T17:38:58.058Z,151529.75
2022-07-27T17:44:02.867Z,151451.78
2022-07-27T17:49:06.229Z,151394.69
2022-07-27T17:54:09.711Z,151359.66
2022-07-27T17:59:36.470Z,151325.91
2022-07-27T18:04:39.575Z,151337.59
2022-07-27T18:09:43.535Z,151342.75
2022-07-27T18:15:03.023Z,151353.13
2022-07-27T18:20:07.639Z,151359.66
2022-07-27T18:25:11.686Z,151335.00
2022-07-27T18:30:16.941Z,151335.00
2022-07-27T18:35:20.481Z,151368.72
2022-07-27T18:40:24.020Z,151347.97
2022-07-27T18:45:34.201Z,151333.72
2022-07-27T18:50:39.860Z,151336.28
2022-07-27T18:55:44.957Z,151294.75
2022-07-27T19:00:49.688Z,151251.88
2022-07-27T19:05:54.458Z,151228.53
2022-07-27T19:10:58.142Z,151262.28
2022-07-27T19:16:02.854Z,151223.34
2022-07-27T19:21:06.220Z,151210.38
2022-07-27T19:26:10.294Z,151196.13
2022-07-27T19:31:22.851Z,151164.97
2022-07-27T19:36:27.749Z,151150.72
2022-07-27T19:41:31.260Z,151146.81
2022-07-27T19:46:36.190Z,151093.66
2022-07-27T19:51:39.896Z,151058.63
2022-07-27T19:56:43.260Z,151022.28
2022-07-27T20:01:48.221Z,150986.00
2022-07-27T20:06:51.652Z,150950.97
2022-07-27T20:12:00.107Z,150930.25
2022-07-27T20:17:06.189Z,150865.44
2022-07-27T20:22:09.738Z,150839.50
2022-07-27T20:27:13.745Z,150823.94
2022-07-27T20:32:18.420Z,150821.34
2022-07-27T20:37:21.835Z,150818.72
2022-07-27T20:42:25.499Z,150786.31
2022-07-27T20:47:34.565Z,150792.81
2022-07-27T20:52:38.457Z,150821.34
2022-07-27T20:57:42.026Z,150801.91
2022-07-27T21:02:46.979Z,150786.31
2022-07-27T21:07:50.425Z,150760.44
2022-07-27T21:12:53.767Z,150759.13
2022-07-27T21:17:58.511Z,150735.81
2022-07-27T21:23:19.555Z,150733.19
2022-07-27T21:28:24.756Z,150702.16
2022-07-27T21:33:30.189Z,150665.84
2022-07-27T21:38:33.591Z,150655.47
2022-07-27T21:43:36.892Z,150673.63
2022-07-27T21:48:42.035Z,150667.13
2022-07-27T21:53:45.902Z,150661.97
2022-07-27T21:58:49.438Z,150687.88
2022-07-27T22:03:54.227Z,150655.47
2022-07-27T22:08:57.585Z,150616.66
2022-07-27T22:14:00.993Z,150576.44
2022-07-27T22:19:06.018Z,150621.81
2022-07-27T22:24:09.562Z,150614.03
2022-07-27T22:29:13.230Z,150620.53
2022-07-27T22:34:18.108Z,150586.84
2022-07-27T22:39:21.502Z,150576.44
2022-07-27T22:44:25.065Z,150576.44
2022-07-27T22:49:30.083Z,150564.78
2022-07-27T22:54:33.944Z,150555.72
2022-07-27T22:59:38.271Z,150490.97
2022-07-27T23:04:43.015Z,150502.63
2022-07-27T23:09:46.312Z,150476.75
2022-07-27T23:14:50.330Z,150449.56
2022-07-27T23:19:55.045Z,150496.19
2022-07-27T23:24:58.329Z,150502.63
2022-07-27T23:30:01.615Z,150479.34
2022-07-27T23:35:07.310Z,150468.97
2022-07-27T23:40:12.066Z,150452.19
2022-07-27T23:45:15.397Z,150428.84
2022-07-27T23:50:20.197Z,150388.75
2022-07-27T23:55:23.544Z,150401.69
